DIRECCIÓN GENERAL DE AERONÁUTICA CIVIL
DIRECCIÓN METEOROLÓGICA DE CHILE
INFORMACIÓN METAR Y TAF

FIR SANTIAGO

Estación: SCSE
METAR SCSE 281800Z 29010KT CAVOK 14/10 Q1016=

TAF SCSE 281630Z 2818/2918 30012KT CAVOK TX17/2818Z TN08/2910Z BECMG 2900/2902 11005KT BECMG 2906/2908 VRB02KT TEMPO 2908/2912 BKN015 BECMG 2914/2916 30010KT=

Estación: SCER
METAR SCER 161100Z 00000KT 7000 OVC014 12/10 Q1015=

TAF SCER NIL=

Estación: SCRD
METAR SCRD 281800Z 29005KT CAVOK 15/10 Q1017=

TAF SCRD 281057Z 2812/2824 15008KT 9999 BKN050 TX16/2818Z TN07/2812Z BECMG 2815/2817 24010KT SCT050 BECMG 2817/2819 SCT040 BKN060=

Estación: SCVM
METAR SCVM 281800Z 30003KT 9999 SCT070 BKN200 16/11 Q1017=

TAF COR SCVM 281710Z 2818/2918 14005KT 6000 BKN110 TX15/2819Z TN07/ 2910Z TEMPO 2819/2821 9999 BKN150 BECMG 2900/2902 14005KT BECMG 2905/ 2907 SCT030 BKN180 BECMG 2916/2918 29012KT=

Estación: SCTB
METAR SCTB 281800Z 23003KT 9999 OVC150 16/06 Q1018=

TAF SCTB 281057Z 2812/2824 VRB02KT 9999 SCT120 BKN180 TX16/2818Z TN08 /2812Z BECMG 2816/2818 22004KT TEMPO 2818/2822 05004KT 6000 BKN100=

Estación: SCEL
METAR SCEL 281800Z VRB02KT 8000 SCT130 BKN180 16/04 Q1017 NOSIG=

TAF SCEL 281630Z 2818/2918 15005KT 9999 BKN150 TX16/2819Z TN05/2911Z BECMG 2818/2820 20012KT BECMG 2900/2902 16005KT TEMPO 2903/2909 05004KT 7000 SCT050 BKN180 BECMG 2916/2918 19012KT=

Estación: SCSN
METAR SCSN 281800Z 24006KT 9999 FEW015 SCT200 14/12 Q1018=

TAF AMD SCSN 281214Z 2812/2824 VRB02KT 0500 FG BKN003 TX14/2818Z TN08 /2812Z BECMG 2814/2816 22010KT 9999 BKN040 BECMG 2817/2819 SCT050 BKN150=

Estación: SCRG
METAR SCRG 281600Z 15006KT 7000 BKN100 OVC150 12/09 Q1019=

TAF SCRG 281058Z 2812/2824 VRB02KT 7000 BKN130 TX13/2818Z TN07/2812Z BECMG 2817/2819 20008KT 9999 BECMG 2820/2822 8000=

Estación: SCIC
METAR SCIC 281800Z 03005KT 9999 OVC080 13/09 Q1017=

TAF SCIC 281059Z 2812/2824 03012KT 8000 -RA BKN020 BKN050 TX14/2819Z TN07/2812Z TEMPO 2812/2816 02018KT 5000 -SHRA BKN010 BKN030 BECMG 2816/2818 01015KT 5000 SHRA BKN010 BKN020=

Estación: SCCH
METAR SCCH 281800Z 36007KT 1200 RA BKN008 OVC015 12/11 Q1016=

TAF SCCH 281059Z 2812/2824 02020KT 5000 RA BKN010 BKN020 TX12/2818Z TN08/2812Z TEMPO 2818/2822 03018G28KT 2000 +RA BKN008 OVC015=

Estación: SCIE
METAR SCIE 281800Z 34010KT 2000 -DZ BKN002 OVC010 13/12 Q1015=

TAF SCIE 281630Z 2818/2918 01022KT 3000 -RA BKN012 OVC033 TX14/2818Z TN08/2910Z BECMG 2820/2822 5000 SHRA BKN020 BECMG 2902/2904 8000 - SHRA BKN012 SCT030 BECMG 2910/2912 35010KT 9999 BKN030 TEMPO 2912/ 2918 7000 -SHRA=

Estación: SCGE
METAR SCGE 281800Z 36015KT 2000 -RA BKN007 OVC010 12/11 Q1014=

TAF SCGE 281059Z 2812/2824 02020KT 4000 RA BKN008 BKN015 TX11/2818Z TN07/2812Z TEMPO 2818/2822 03018G28KT 2000 +RA BKN010 BKN020=


Volver